Sabahat Telli — TCSQ6 — position and weather

sailwx.info

Track history (hours):
 
Tides and Currents Weather Stations Pressure Air Temp Water Temp Dewpoint Dewpoint Depression Visibility Wind Speed Wind Dir Waves Ship Positions

Sabahat Telli

Last reported at 2015-Mar-01 16:33 UTC. Time now 2015-Mar-05 22:33 UTC.
Position N 41°25' E 029°33'.

Length 99 m; draft 4.3 m.

Type: Tanker. MMSI: 271000961.

Date/timePositionNaut miles runAvg speedWind from/ knotsBaromVisibWave heightAir tempDewpointWater temp
2015-Mar-01 16:33N 41°25' E 029°33'1312.6
2015-Mar-01 15:33N 41°18' E 029°19'  
2015-Feb-26 06:33N 41°29' E 029°29'25411.5
2015-Feb-25 08:28N 43°50' E 034°17'1512.3
2015-Feb-25 07:17N 43°58' E 034°34'912.5
2015-Feb-25 06:33N 44°03' E 034°45'1212.3
2015-Feb-25 05:33N 44°09' E 034°60'1212.1
2015-Feb-25 04:33N 44°15' E 035°14'1212.1
2015-Feb-25 03:33N 44°22' E 035°28'1211.9
2015-Feb-25 02:30N 44°29' E 035°42'1312.5
2015-Feb-25 01:30N 44°36' E 035°57'1212.3
2015-Feb-25 00:33N 44°42' E 036°11'1211.8
2015-Feb-24 23:33N 44°49' E 036°25'  
2015-Feb-20 23:09N 44°30' E 035°17'6 9.8
2015-Feb-20 22:33N 44°28' E 035°09'9 9.1
2015-Feb-20 21:33N 44°25' E 034°57'9 9.1
2015-Feb-20 20:33N 44°22' E 034°45'9 9.2
2015-Feb-20 19:33N 44°20' E 034°32'9 9.4
2015-Feb-20 18:33N 44°17' E 034°20'10 9.7
2015-Feb-20 17:33N 44°15' E 034°06'  
Track history (hours):
 
Tides and Currents Weather Stations Pressure Air Temp Water Temp Dewpoint Dewpoint Depression Visibility Wind Speed Wind Dir Waves Ship Positions

Sabahat Telli

Last reported at 2015-Mar-01 16:33 UTC. Time now 2015-Mar-05 22:33 UTC.
Position N 41°25' E 029°33'.

Length 99 m; draft 4.3 m.

Type: Tanker. MMSI: 271000961.

Date/timePositionNaut miles runAvg speedWind from/ knotsBaromVisibWave heightAir tempDewpointWater temp
2015-Mar-01 16:33N 41°25' E 029°33'1312.6
2015-Mar-01 15:33N 41°18' E 029°19'  
2015-Feb-26 06:33N 41°29' E 029°29'25411.5
2015-Feb-25 08:28N 43°50' E 034°17'1512.3
2015-Feb-25 07:17N 43°58' E 034°34'912.5
2015-Feb-25 06:33N 44°03' E 034°45'1212.3
2015-Feb-25 05:33N 44°09' E 034°60'1212.1
2015-Feb-25 04:33N 44°15' E 035°14'1212.1
2015-Feb-25 03:33N 44°22' E 035°28'1211.9
2015-Feb-25 02:30N 44°29' E 035°42'1312.5
2015-Feb-25 01:30N 44°36' E 035°57'1212.3
2015-Feb-25 00:33N 44°42' E 036°11'1211.8
2015-Feb-24 23:33N 44°49' E 036°25'  
2015-Feb-20 23:09N 44°30' E 035°17'6 9.8
2015-Feb-20 22:33N 44°28' E 035°09'9 9.1
2015-Feb-20 21:33N 44°25' E 034°57'9 9.1
2015-Feb-20 20:33N 44°22' E 034°45'9 9.2
2015-Feb-20 19:33N 44°20' E 034°32'9 9.4
2015-Feb-20 18:33N 44°17' E 034°20'10 9.7
2015-Feb-20 17:33N 44°15' E 034°06'  

Dump ship's entire track history